LF7421 weather

Altiport du Col de Cenise
Brison, Rhône Alpes, France

Public forecast

Using degrees Celsius for public forecast. Weather courtesy of forecast.io.

METAR (pilot weather report)

Closest report is Annecy-Haute-Savoie-Mont Blanc Airport, 15.3 nm (28.4 km) WSW. Retrieved 2019/09/16 13:30 UTC (4 minutes ago):

LFLP 161330Z AUTO 01006KT 310V080 CAVOK 30/14 Q1019 NOSIG

TAF (pilot weather forecast)

Closest forecast is Annecy-Haute-Savoie-Mont Blanc Airport, 15.3 nm (28.4 km) WSW. Retrieved 2019/09/16 15:00 UTC (0 seconds ago):

TAF LFLP 161400Z 1615/1715 01005KT CAVOK BECMG 1619/1621 VRB03KT BECMG 1709/1711 27005KT